createdAt,value
2023-02-15T00:07:51.320Z,1016
2023-02-15T00:17:57.885Z,1015.9
2023-02-15T00:28:04.463Z,1015.8
2023-02-15T00:38:10.340Z,1015.8
2023-02-15T00:48:16.898Z,1015.7
2023-02-15T00:58:23.488Z,1015.7
2023-02-15T01:08:30.152Z,1015.7
2023-02-15T01:18:36.657Z,1015.7
2023-02-15T01:28:43.379Z,1015.5
2023-02-15T01:38:49.964Z,1015.5
2023-02-15T01:48:56.452Z,1015.4
2023-02-15T01:59:03.014Z,1015.3
2023-02-15T02:09:09.770Z,1015.3
2023-02-15T02:19:16.207Z,1015.2
2023-02-15T02:29:22.849Z,1015.1
2023-02-15T02:39:29.359Z,1015.1
2023-02-15T02:49:35.349Z,1015
2023-02-15T02:59:41.839Z,1015
2023-02-15T03:09:48.475Z,1014.8
2023-02-15T03:19:55.039Z,1014.8
2023-02-15T03:30:01.573Z,1014.8
2023-02-15T03:40:08.240Z,1014.7
2023-02-15T03:50:14.836Z,1014.7
2023-02-15T04:00:21.435Z,1014.7
2023-02-15T04:10:28.217Z,1014.7
2023-02-15T04:20:34.777Z,1014.6
2023-02-15T04:30:41.415Z,1014.6
2023-02-15T04:40:48.110Z,1014.6
2023-02-15T04:50:54.704Z,1014.5
2023-02-15T05:01:00.545Z,1014.4
2023-02-15T05:11:07.133Z,1014.5
2023-02-15T05:21:13.713Z,1014.4
2023-02-15T05:31:20.307Z,1014.3
2023-02-15T05:41:26.938Z,1014.3
2023-02-15T05:51:33.482Z,1014.4
2023-02-15T06:01:40.147Z,1014.4
2023-02-15T06:11:46.617Z,1014.5
2023-02-15T06:21:53.151Z,1014.5
2023-02-15T06:31:59.671Z,1014.5
2023-02-15T06:42:06.193Z,1014.6
2023-02-15T06:52:12.738Z,1014.6
2023-02-15T07:02:19.268Z,1014.7
2023-02-15T07:12:25.819Z,1014.8
2023-02-15T07:22:31.756Z,1014.8
2023-02-15T07:32:38.293Z,1014.7
2023-02-15T07:42:44.776Z,1014.7
2023-02-15T07:52:51.329Z,1014.6
2023-02-15T08:02:57.873Z,1014.6
2023-02-15T08:13:04.404Z,1014.6
2023-02-15T08:23:11.068Z,1014.6
2023-02-15T08:33:17.553Z,1014.5
2023-02-15T08:43:24.066Z,1014.5
2023-02-15T08:53:30.629Z,1014.5
2023-02-15T09:03:37.156Z,1014.4
2023-02-15T09:13:43.703Z,1014.3
2023-02-15T09:23:50.192Z,1014.3
2023-02-15T09:33:55.995Z,1014.2
2023-02-15T09:44:02.536Z,1014.2
2023-02-15T09:54:09.057Z,1014.2
2023-02-15T10:04:15.597Z,1014.3
2023-02-15T10:14:22.146Z,1014.4
2023-02-15T10:24:28.657Z,1014.4
2023-02-15T10:34:35.229Z,1014.3
2023-02-15T10:44:41.758Z,1014.2
2023-02-15T10:54:48.248Z,1014.2
2023-02-15T11:04:54.825Z,1014.1
2023-02-15T11:15:01.375Z,1014.1
2023-02-15T11:25:07.878Z,1014.1
2023-02-15T11:35:14.383Z,1014.1
2023-02-15T11:45:20.207Z,1013.9
2023-02-15T11:55:26.785Z,1013.8
2023-02-15T12:05:33.288Z,1013.6
2023-02-15T12:15:39.917Z,1013.6
2023-02-15T12:25:46.392Z,1013.5
2023-02-15T12:35:52.895Z,1013.5
2023-02-15T12:45:59.425Z,1013.3
2023-02-15T12:56:05.977Z,1013.2
2023-02-15T13:06:12.457Z,1013.1
2023-02-15T13:16:19.015Z,1012.9
2023-02-15T13:26:25.541Z,1012.9
2023-02-15T13:36:32.055Z,1012.7
2023-02-15T13:46:38.583Z,1012.7
2023-02-15T13:56:45.117Z,1012.5
2023-02-15T14:06:50.933Z,1012.5
2023-02-15T14:16:57.498Z,1012.4
2023-02-15T14:27:04.076Z,1012.3
2023-02-15T14:37:10.497Z,1012.3
2023-02-15T14:47:17.032Z,1012.2
2023-02-15T14:57:23.759Z,1012.2
2023-02-15T15:07:30.229Z,1012.2
2023-02-15T15:17:36.769Z,1012.2
2023-02-15T15:27:43.281Z,1012.1
2023-02-15T15:37:49.783Z,1012.1
2023-02-15T15:58:02.862Z,1012.1
2023-02-15T16:08:09.391Z,1012.1
2023-02-15T16:18:15.982Z,1012
2023-02-15T16:28:21.739Z,1012.1
2023-02-15T16:38:28.225Z,1012.1
2023-02-15T16:48:34.758Z,1012
2023-02-15T16:58:41.286Z,1012.1
2023-02-15T17:08:47.816Z,1012.1
2023-02-15T17:18:54.500Z,1012.3
2023-02-15T17:29:01.031Z,1012.2
2023-02-15T17:39:07.588Z,1012.3
2023-02-15T17:49:14.188Z,1012.3
2023-02-15T17:59:20.804Z,1012.3
2023-02-15T18:09:27.335Z,1012.2
2023-02-15T18:19:33.943Z,1012.1
2023-02-15T18:29:40.494Z,1012.1
2023-02-15T18:39:46.332Z,1012.1
2023-02-15T18:49:53.064Z,1012.1
2023-02-15T18:59:59.501Z,1012.1
2023-02-15T19:10:06.314Z,1012.1
2023-02-15T19:20:12.994Z,1012.1
2023-02-15T19:30:19.465Z,1012.1
2023-02-15T19:40:26.232Z,1012.2
2023-02-15T19:50:32.793Z,1012.2
2023-02-15T20:00:39.378Z,1012.2
2023-02-15T20:10:46.136Z,1012.2
2023-02-15T20:20:52.768Z,1012.2
2023-02-15T20:30:59.294Z,1012.2
2023-02-15T20:41:06.063Z,1012.2
2023-02-15T20:51:11.932Z,1012.2
2023-02-15T21:01:18.513Z,1012.2
2023-02-15T21:11:25.091Z,1012.1
2023-02-15T21:21:31.836Z,1012.1
2023-02-15T21:31:38.252Z,1012.1
2023-02-15T21:41:44.845Z,1012.2
2023-02-15T21:51:51.483Z,1012.2
2023-02-15T22:01:58.006Z,1012.3
2023-02-15T22:22:11.232Z,1012.1
2023-02-15T22:32:17.786Z,1012.1
2023-02-15T22:42:24.338Z,1012.1
2023-02-15T22:52:30.931Z,1012.1
2023-02-15T23:02:37.507Z,1012
2023-02-15T23:12:43.359Z,1012
2023-02-15T23:22:50.019Z,1011.9
2023-02-15T23:32:56.521Z,1011.9
2023-02-15T23:43:03.104Z,1012
2023-02-15T23:53:09.691Z,1012
